createdAt,value
2022-09-17T00:06:55.567Z,0.30
2022-09-17T00:18:56.431Z,0.01
2022-09-17T00:30:56.553Z,0.12
2022-09-17T00:42:56.952Z,0.05
2022-09-17T00:54:57.403Z,0.01
2022-09-17T01:06:57.852Z,0.08
2022-09-17T01:18:58.342Z,0.00
2022-09-17T01:30:58.801Z,0.34
2022-09-17T01:42:59.212Z,0.09
2022-09-17T01:54:59.650Z,0.16
2022-09-17T02:07:00.134Z,0.01
2022-09-17T02:19:00.578Z,0.35
2022-09-17T02:31:01.029Z,0.00
2022-09-17T02:43:01.492Z,0.36
2022-09-17T02:55:01.950Z,0.39
2022-09-17T03:07:02.402Z,0.10
2022-09-17T03:19:02.823Z,0.07
2022-09-17T03:31:03.317Z,0.10
2022-09-17T03:43:03.766Z,0.32
2022-09-17T03:55:04.200Z,0.06
2022-09-17T04:07:04.636Z,0.42
2022-09-17T04:19:05.111Z,0.84
2022-09-17T04:31:05.636Z,0.15
2022-09-17T04:43:06.016Z,0.17
2022-09-17T04:55:06.464Z,0.04
2022-09-17T05:07:09.094Z,0.13
2022-09-17T05:19:07.402Z,0.96
2022-09-17T05:31:07.874Z,0.01
2022-09-17T05:43:08.254Z,0.00
2022-09-17T05:55:08.732Z,0.21
2022-09-17T06:07:09.213Z,0.09
2022-09-17T06:19:09.671Z,0.00
2022-09-17T06:31:10.197Z,0.00
2022-09-17T06:43:10.530Z,0.03
2022-09-17T06:55:11.016Z,0.11
2022-09-17T07:07:11.470Z,0.01
2022-09-17T07:19:14.790Z,0.01
2022-09-17T07:31:16.174Z,0.00
2022-09-17T07:43:12.829Z,0.00
2022-09-17T07:55:13.238Z,0.00
2022-09-17T08:07:13.733Z,0.00
2022-09-17T08:19:14.199Z,0.01
2022-09-17T08:31:14.717Z,0.13
2022-09-17T08:43:15.060Z,0.00
2022-09-17T08:55:15.582Z,0.00
2022-09-17T09:07:15.995Z,0.26
2022-09-17T09:19:16.436Z,0.01
2022-09-17T09:31:16.928Z,0.30
2022-09-17T09:43:17.324Z,0.72
2022-09-17T09:55:17.775Z,0.47
2022-09-17T10:07:18.288Z,0.49
2022-09-17T10:19:18.716Z,0.09
2022-09-17T10:31:19.211Z,0.36
2022-09-17T10:43:19.630Z,1.79
2022-09-17T10:55:20.136Z,1.90
2022-09-17T11:07:20.523Z,1.30
2022-09-17T11:19:20.993Z,1.31
2022-09-17T11:31:24.303Z,1.13
2022-09-17T11:43:21.907Z,0.82
2022-09-17T11:55:22.319Z,2.55
2022-09-17T12:07:22.794Z,1.77
2022-09-17T12:19:23.243Z,2.64
2022-09-17T12:31:23.834Z,3.12
2022-09-17T12:43:24.150Z,2.06
2022-09-17T12:55:24.609Z,2.44
2022-09-17T13:07:25.057Z,1.54
2022-09-17T13:19:25.685Z,2.10
2022-09-17T13:31:26.035Z,1.47
2022-09-17T13:43:26.415Z,1.71
2022-09-17T13:55:26.838Z,2.42
2022-09-17T14:07:27.347Z,1.80
2022-09-17T14:19:27.735Z,1.86
2022-09-17T14:31:28.290Z,1.33
2022-09-17T14:43:28.715Z,1.57
2022-09-17T14:55:29.168Z,0.06
2022-09-17T15:07:29.614Z,0.12
2022-09-17T15:19:30.048Z,0.32
2022-09-17T15:31:30.592Z,0.41
2022-09-17T15:43:30.985Z,1.86
2022-09-17T15:55:31.413Z,1.87
2022-09-17T16:07:31.881Z,1.35
2022-09-17T16:19:32.676Z,2.17
2022-09-17T16:31:32.870Z,2.88
2022-09-17T16:43:33.240Z,1.43
2022-09-17T16:55:33.696Z,2.31
2022-09-17T17:07:34.152Z,1.58
2022-09-17T17:19:34.610Z,1.59
2022-09-17T17:31:35.076Z,1.93
2022-09-17T17:43:35.522Z,1.42
2022-09-17T17:55:35.943Z,2.31
2022-09-17T18:07:36.448Z,2.31
2022-09-17T18:19:36.884Z,1.72
2022-09-17T18:31:37.339Z,2.74
2022-09-17T18:43:37.737Z,0.69
2022-09-17T18:55:38.198Z,0.04
2022-09-17T19:07:38.677Z,0.29
2022-09-17T19:19:39.103Z,0.35
2022-09-17T19:31:39.645Z,0.44
2022-09-17T19:43:40.028Z,0.54
2022-09-17T19:55:40.469Z,0.55
2022-09-17T20:07:40.955Z,0.20
2022-09-17T20:19:41.409Z,0.20
2022-09-17T20:31:41.981Z,0.11
2022-09-17T20:43:42.292Z,0.92
2022-09-17T20:55:42.689Z,1.41
2022-09-17T21:07:43.220Z,1.32
2022-09-17T21:19:43.659Z,2.06
2022-09-17T21:31:44.301Z,2.13
2022-09-17T21:43:44.535Z,2.02
2022-09-17T21:55:45.010Z,0.70
2022-09-17T22:07:45.492Z,0.18
2022-09-17T22:19:45.934Z,0.15
2022-09-17T22:31:46.457Z,1.41
2022-09-17T22:43:46.823Z,1.49
2022-09-17T22:55:47.288Z,0.14
2022-09-17T23:07:47.745Z,0.38
2022-09-17T23:19:48.182Z,0.08
2022-09-17T23:31:48.647Z,0.20
2022-09-17T23:43:49.089Z,0.00
2022-09-17T23:55:49.548Z,0.00
